sensor_id;sensor_type;location;lat;lon;timestamp;P1;durP1;ratioP1;P2;durP2;ratioP2
27424;SDS011;15244;49.088;11.886;2023-05-21T00:01:04;7.70;;;6.65;;
27424;SDS011;15244;49.088;11.886;2023-05-21T00:06:08;9.65;;;6.47;;
27424;SDS011;15244;49.088;11.886;2023-05-21T00:11:10;7.95;;;7.25;;
27424;SDS011;15244;49.088;11.886;2023-05-21T00:16:12;8.07;;;6.75;;
27424;SDS011;15244;49.088;11.886;2023-05-21T00:21:13;6.85;;;6.35;;
27424;SDS011;15244;49.088;11.886;2023-05-21T00:26:19;7.32;;;6.72;;
27424;SDS011;15244;49.088;11.886;2023-05-21T00:31:22;7.13;;;6.63;;
27424;SDS011;15244;49.088;11.886;2023-05-21T00:36:24;7.68;;;6.88;;
27424;SDS011;15244;49.088;11.886;2023-05-21T00:41:26;7.68;;;6.97;;
27424;SDS011;15244;49.088;11.886;2023-05-21T00:46:27;7.32;;;6.72;;
27424;SDS011;15244;49.088;11.886;2023-05-21T00:51:29;7.38;;;6.78;;
27424;SDS011;15244;49.088;11.886;2023-05-21T00:56:31;8.18;;;7.47;;
27424;SDS011;15244;49.088;11.886;2023-05-21T01:06:46;7.90;;;7.18;;
27424;SDS011;15244;49.088;11.886;2023-05-21T01:11:49;7.78;;;7.10;;
27424;SDS011;15244;49.088;11.886;2023-05-21T01:16:52;7.30;;;6.70;;
27424;SDS011;15244;49.088;11.886;2023-05-21T01:22:02;7.30;;;6.70;;
27424;SDS011;15244;49.088;11.886;2023-05-21T01:27:06;7.18;;;6.68;;
27424;SDS011;15244;49.088;11.886;2023-05-21T01:37:25;10.60;;;7.28;;
27424;SDS011;15244;49.088;11.886;2023-05-21T01:42:30;9.90;;;7.47;;
27424;SDS011;15244;49.088;11.886;2023-05-21T01:47:34;8.90;;;8.00;;
27424;SDS011;15244;49.088;11.886;2023-05-21T01:52:37;8.13;;;7.43;;
27424;SDS011;15244;49.088;11.886;2023-05-21T01:57:39;8.80;;;8.10;;
27424;SDS011;15244;49.088;11.886;2023-05-21T02:02:40;9.23;;;8.27;;
27424;SDS011;15244;49.088;11.886;2023-05-21T02:07:43;9.10;;;7.90;;
27424;SDS011;15244;49.088;11.886;2023-05-21T02:12:46;8.18;;;7.47;;
27424;SDS011;15244;49.088;11.886;2023-05-21T02:17:47;8.48;;;7.55;;
27424;SDS011;15244;49.088;11.886;2023-05-21T02:22:51;8.15;;;7.53;;
27424;SDS011;15244;49.088;11.886;2023-05-21T02:27:53;7.50;;;6.95;;
27424;SDS011;15244;49.088;11.886;2023-05-21T02:32:57;8.48;;;7.78;;
27424;SDS011;15244;49.088;11.886;2023-05-21T02:37:59;8.48;;;7.78;;
27424;SDS011;15244;49.088;11.886;2023-05-21T02:43:03;8.77;;;8.07;;
27424;SDS011;15244;49.088;11.886;2023-05-21T02:48:05;8.20;;;7.60;;
27424;SDS011;15244;49.088;11.886;2023-05-21T02:53:12;8.77;;;8.02;;
27424;SDS011;15244;49.088;11.886;2023-05-21T02:58:13;9.98;;;8.23;;
27424;SDS011;15244;49.088;11.886;2023-05-21T03:03:15;8.65;;;7.80;;
27424;SDS011;15244;49.088;11.886;2023-05-21T03:08:17;9.90;;;8.90;;
27424;SDS011;15244;49.088;11.886;2023-05-21T03:13:18;9.00;;;8.10;;
27424;SDS011;15244;49.088;11.886;2023-05-21T03:18:22;9.20;;;8.20;;
27424;SDS011;15244;49.088;11.886;2023-05-21T03:23:23;9.18;;;8.32;;
27424;SDS011;15244;49.088;11.886;2023-05-21T03:28:25;9.38;;;8.45;;
27424;SDS011;15244;49.088;11.886;2023-05-21T03:33:26;8.00;;;7.40;;
27424;SDS011;15244;49.088;11.886;2023-05-21T03:38:28;9.98;;;8.95;;
27424;SDS011;15244;49.088;11.886;2023-05-21T03:43:30;9.52;;;8.73;;
27424;SDS011;15244;49.088;11.886;2023-05-21T03:48:32;10.90;;;8.32;;
27424;SDS011;15244;49.088;11.886;2023-05-21T03:53:35;9.95;;;9.05;;
27424;SDS011;15244;49.088;11.886;2023-05-21T03:58:37;9.93;;;9.02;;
27424;SDS011;15244;49.088;11.886;2023-05-21T04:03:39;9.60;;;8.70;;
27424;SDS011;15244;49.088;11.886;2023-05-21T04:08:42;9.35;;;8.65;;
27424;SDS011;15244;49.088;11.886;2023-05-21T04:13:44;10.23;;;9.32;;
27424;SDS011;15244;49.088;11.886;2023-05-21T04:18:47;9.45;;;8.65;;
27424;SDS011;15244;49.088;11.886;2023-05-21T04:23:50;8.48;;;7.68;;
27424;SDS011;15244;49.088;11.886;2023-05-21T04:29:00;8.73;;;8.00;;
27424;SDS011;15244;49.088;11.886;2023-05-21T04:34:03;9.32;;;8.48;;
27424;SDS011;15244;49.088;11.886;2023-05-21T04:39:05;10.25;;;8.98;;
27424;SDS011;15244;49.088;11.886;2023-05-21T04:44:07;9.35;;;8.55;;
27424;SDS011;15244;49.088;11.886;2023-05-21T04:49:10;8.68;;;8.00;;
27424;SDS011;15244;49.088;11.886;2023-05-21T04:54:12;10.18;;;8.55;;
27424;SDS011;15244;49.088;11.886;2023-05-21T04:59:13;9.65;;;8.75;;
27424;SDS011;15244;49.088;11.886;2023-05-21T05:04:16;9.82;;;8.95;;
27424;SDS011;15244;49.088;11.886;2023-05-21T05:09:17;10.05;;;9.15;;
27424;SDS011;15244;49.088;11.886;2023-05-21T05:14:21;9.32;;;8.52;;
27424;SDS011;15244;49.088;11.886;2023-05-21T05:19:23;9.52;;;8.73;;
27424;SDS011;15244;49.088;11.886;2023-05-21T05:24:25;9.25;;;8.40;;
27424;SDS011;15244;49.088;11.886;2023-05-21T05:29:27;8.85;;;8.13;;
27424;SDS011;15244;49.088;11.886;2023-05-21T05:34:28;9.15;;;8.45;;
27424;SDS011;15244;49.088;11.886;2023-05-21T05:39:30;8.88;;;8.13;;
27424;SDS011;15244;49.088;11.886;2023-05-21T05:44:31;9.15;;;8.35;;
27424;SDS011;15244;49.088;11.886;2023-05-21T05:49:34;9.20;;;8.27;;
27424;SDS011;15244;49.088;11.886;2023-05-21T05:54:36;9.70;;;8.90;;
27424;SDS011;15244;49.088;11.886;2023-05-21T05:59:38;9.70;;;8.63;;
27424;SDS011;15244;49.088;11.886;2023-05-21T06:04:40;9.95;;;8.98;;
27424;SDS011;15244;49.088;11.886;2023-05-21T06:09:42;8.43;;;7.75;;
27424;SDS011;15244;49.088;11.886;2023-05-21T06:14:45;9.55;;;8.80;;
27424;SDS011;15244;49.088;11.886;2023-05-21T06:19:47;9.32;;;8.48;;
27424;SDS011;15244;49.088;11.886;2023-05-21T06:24:49;10.70;;;8.82;;
27424;SDS011;15244;49.088;11.886;2023-05-21T06:29:51;8.68;;;7.88;;
27424;SDS011;15244;49.088;11.886;2023-05-21T06:34:53;9.90;;;8.90;;
27424;SDS011;15244;49.088;11.886;2023-05-21T06:39:54;9.77;;;8.70;;
27424;SDS011;15244;49.088;11.886;2023-05-21T06:44:56;8.63;;;7.93;;
27424;SDS011;15244;49.088;11.886;2023-05-21T06:50:24;9.70;;;8.82;;
27424;SDS011;15244;49.088;11.886;2023-05-21T06:55:26;8.57;;;7.88;;
27424;SDS011;15244;49.088;11.886;2023-05-21T07:00:49;9.48;;;8.68;;
27424;SDS011;15244;49.088;11.886;2023-05-21T07:05:52;9.07;;;8.27;;
27424;SDS011;15244;49.088;11.886;2023-05-21T07:10:54;9.50;;;8.70;;
27424;SDS011;15244;49.088;11.886;2023-05-21T07:15:56;9.48;;;8.68;;
27424;SDS011;15244;49.088;11.886;2023-05-21T07:20:59;8.82;;;8.13;;
27424;SDS011;15244;49.088;11.886;2023-05-21T07:26:01;9.13;;;8.35;;
27424;SDS011;15244;49.088;11.886;2023-05-21T07:31:03;8.98;;;8.13;;
27424;SDS011;15244;49.088;11.886;2023-05-21T07:36:11;8.85;;;7.88;;
27424;SDS011;15244;49.088;11.886;2023-05-21T07:41:13;9.95;;;9.05;;
27424;SDS011;15244;49.088;11.886;2023-05-21T07:46:18;8.57;;;7.78;;
27424;SDS011;15244;49.088;11.886;2023-05-21T07:51:23;8.85;;;8.15;;
27424;SDS011;15244;49.088;11.886;2023-05-21T07:56:26;8.98;;;8.25;;
27424;SDS011;15244;49.088;11.886;2023-05-21T08:01:28;8.88;;;8.07;;
27424;SDS011;15244;49.088;11.886;2023-05-21T08:06:33;9.00;;;8.30;;
27424;SDS011;15244;49.088;11.886;2023-05-21T08:11:35;9.18;;;8.30;;
27424;SDS011;15244;49.088;11.886;2023-05-21T08:16:37;8.50;;;7.82;;
27424;SDS011;15244;49.088;11.886;2023-05-21T08:21:39;9.25;;;8.32;;
27424;SDS011;15244;49.088;11.886;2023-05-21T08:26:41;8.90;;;8.10;;
27424;SDS011;15244;49.088;11.886;2023-05-21T08:31:44;8.50;;;7.68;;
27424;SDS011;15244;49.088;11.886;2023-05-21T08:36:45;8.05;;;7.45;;
27424;SDS011;15244;49.088;11.886;2023-05-21T08:47:47;7.82;;;7.32;;
27424;SDS011;15244;49.088;11.886;2023-05-21T08:52:54;8.05;;;7.32;;
27424;SDS011;15244;49.088;11.886;2023-05-21T08:57:56;8.00;;;7.40;;
27424;SDS011;15244;49.088;11.886;2023-05-21T09:02:59;8.35;;;7.38;;
27424;SDS011;15244;49.088;11.886;2023-05-21T09:08:20;8.25;;;7.55;;
27424;SDS011;15244;49.088;11.886;2023-05-21T09:13:39;7.35;;;6.72;;
27424;SDS011;15244;49.088;11.886;2023-05-21T09:18:49;8.43;;;7.68;;
27424;SDS011;15244;49.088;11.886;2023-05-21T09:24:01;8.07;;;7.38;;
27424;SDS011;15244;49.088;11.886;2023-05-21T09:29:04;7.55;;;7.03;;
27424;SDS011;15244;49.088;11.886;2023-05-21T09:34:05;7.68;;;6.97;;
27424;SDS011;15244;49.088;11.886;2023-05-21T09:39:07;7.10;;;6.50;;
27424;SDS011;15244;49.088;11.886;2023-05-21T09:44:09;6.97;;;6.45;;
27424;SDS011;15244;49.088;11.886;2023-05-21T09:49:24;7.47;;;6.88;;
27424;SDS011;15244;49.088;11.886;2023-05-21T09:54:31;6.55;;;6.15;;
27424;SDS011;15244;49.088;11.886;2023-05-21T09:59:35;6.13;;;5.72;;
27424;SDS011;15244;49.088;11.886;2023-05-21T10:04:39;8.85;;;6.07;;
27424;SDS011;15244;49.088;11.886;2023-05-21T10:09:43;6.72;;;6.22;;
27424;SDS011;15244;49.088;11.886;2023-05-21T10:14:49;8.35;;;6.28;;
27424;SDS011;15244;49.088;11.886;2023-05-21T10:19:54;6.10;;;5.60;;
27424;SDS011;15244;49.088;11.886;2023-05-21T10:24:57;6.03;;;5.63;;
27424;SDS011;15244;49.088;11.886;2023-05-21T10:29:59;6.20;;;5.78;;
27424;SDS011;15244;49.088;11.886;2023-05-21T10:35:02;11.60;;;5.93;;
27424;SDS011;15244;49.088;11.886;2023-05-21T10:40:04;5.65;;;5.25;;
27424;SDS011;15244;49.088;11.886;2023-05-21T10:45:10;5.85;;;5.45;;
27424;SDS011;15244;49.088;11.886;2023-05-21T11:01:30;4.88;;;4.47;;
27424;SDS011;15244;49.088;11.886;2023-05-21T11:06:35;5.82;;;5.43;;
27424;SDS011;15244;49.088;11.886;2023-05-21T11:11:41;5.22;;;4.90;;
27424;SDS011;15244;49.088;11.886;2023-05-21T11:16:53;5.78;;;5.28;;
27424;SDS011;15244;49.088;11.886;2023-05-21T11:21:55;5.40;;;5.10;;
27424;SDS011;15244;49.088;11.886;2023-05-21T11:32:01;4.25;;;4.05;;
27424;SDS011;15244;49.088;11.886;2023-05-21T11:42:31;5.40;;;5.10;;
27424;SDS011;15244;49.088;11.886;2023-05-21T11:47:34;5.18;;;4.65;;
27424;SDS011;15244;49.088;11.886;2023-05-21T11:52:36;5.15;;;4.70;;
27424;SDS011;15244;49.088;11.886;2023-05-21T11:57:40;6.15;;;4.65;;
27424;SDS011;15244;49.088;11.886;2023-05-21T12:02:44;5.53;;;4.55;;
27424;SDS011;15244;49.088;11.886;2023-05-21T12:07:47;5.07;;;4.78;;
27424;SDS011;15244;49.088;11.886;2023-05-21T12:12:54;4.67;;;4.37;;
27424;SDS011;15244;49.088;11.886;2023-05-21T12:17:57;4.82;;;4.43;;
27424;SDS011;15244;49.088;11.886;2023-05-21T12:22:59;5.13;;;4.75;;
27424;SDS011;15244;49.088;11.886;2023-05-21T12:28:01;4.88;;;4.57;;
27424;SDS011;15244;49.088;11.886;2023-05-21T12:33:05;4.90;;;4.60;;
27424;SDS011;15244;49.088;11.886;2023-05-21T12:38:07;5.75;;;5.13;;
27424;SDS011;15244;49.088;11.886;2023-05-21T12:43:09;5.40;;;5.00;;
27424;SDS011;15244;49.088;11.886;2023-05-21T12:48:11;4.80;;;4.47;;
27424;SDS011;15244;49.088;11.886;2023-05-21T12:53:13;4.95;;;4.55;;
27424;SDS011;15244;49.088;11.886;2023-05-21T12:58:14;4.78;;;4.47;;
27424;SDS011;15244;49.088;11.886;2023-05-21T13:03:17;5.72;;;4.78;;
27424;SDS011;15244;49.088;11.886;2023-05-21T13:08:19;4.97;;;4.57;;
27424;SDS011;15244;49.088;11.886;2023-05-21T13:13:21;4.22;;;4.03;;
27424;SDS011;15244;49.088;11.886;2023-05-21T13:18:22;4.70;;;4.32;;
27424;SDS011;15244;49.088;11.886;2023-05-21T13:23:24;5.35;;;4.60;;
27424;SDS011;15244;49.088;11.886;2023-05-21T13:28:26;4.88;;;4.47;;
27424;SDS011;15244;49.088;11.886;2023-05-21T13:33:27;4.55;;;4.22;;
27424;SDS011;15244;49.088;11.886;2023-05-21T13:38:29;4.97;;;4.15;;
27424;SDS011;15244;49.088;11.886;2023-05-21T13:43:30;5.90;;;4.65;;
27424;SDS011;15244;49.088;11.886;2023-05-21T13:48:32;4.60;;;4.38;;
27424;SDS011;15244;49.088;11.886;2023-05-21T13:53:34;4.20;;;4.00;;
27424;SDS011;15244;49.088;11.886;2023-05-21T13:58:35;4.47;;;4.10;;
27424;SDS011;15244;49.088;11.886;2023-05-21T14:03:37;4.93;;;4.53;;
27424;SDS011;15244;49.088;11.886;2023-05-21T14:08:38;4.32;;;4.03;;
27424;SDS011;15244;49.088;11.886;2023-05-21T14:13:41;4.93;;;4.53;;
27424;SDS011;15244;49.088;11.886;2023-05-21T14:18:43;4.53;;;4.20;;
27424;SDS011;15244;49.088;11.886;2023-05-21T14:23:45;5.13;;;4.72;;
27424;SDS011;15244;49.088;11.886;2023-05-21T14:28:46;4.35;;;3.97;;
27424;SDS011;15244;49.088;11.886;2023-05-21T14:33:48;4.78;;;4.07;;
27424;SDS011;15244;49.088;11.886;2023-05-21T14:38:49;4.38;;;4.07;;
27424;SDS011;15244;49.088;11.886;2023-05-21T14:43:51;4.40;;;4.20;;
27424;SDS011;15244;49.088;11.886;2023-05-21T14:48:53;4.47;;;4.13;;
27424;SDS011;15244;49.088;11.886;2023-05-21T14:53:59;4.10;;;3.90;;
27424;SDS011;15244;49.088;11.886;2023-05-21T14:59:01;4.38;;;4.07;;
27424;SDS011;15244;49.088;11.886;2023-05-21T15:04:02;4.38;;;4.00;;
27424;SDS011;15244;49.088;11.886;2023-05-21T15:09:04;4.10;;;3.80;;
27424;SDS011;15244;49.088;11.886;2023-05-21T15:14:06;4.32;;;3.78;;
27424;SDS011;15244;49.088;11.886;2023-05-21T15:19:07;4.03;;;3.83;;
27424;SDS011;15244;49.088;11.886;2023-05-21T15:24:09;3.75;;;3.55;;
27424;SDS011;15244;49.088;11.886;2023-05-21T15:29:11;4.32;;;4.03;;
27424;SDS011;15244;49.088;11.886;2023-05-21T15:34:13;4.22;;;3.92;;
27424;SDS011;15244;49.088;11.886;2023-05-21T15:39:15;3.85;;;3.65;;
27424;SDS011;15244;49.088;11.886;2023-05-21T15:44:17;4.18;;;3.97;;
27424;SDS011;15244;49.088;11.886;2023-05-21T15:49:18;4.20;;;3.78;;
27424;SDS011;15244;49.088;11.886;2023-05-21T15:54:20;3.75;;;3.55;;
27424;SDS011;15244;49.088;11.886;2023-05-21T15:59:22;3.90;;;3.65;;
27424;SDS011;15244;49.088;11.886;2023-05-21T16:04:25;3.90;;;3.70;;
27424;SDS011;15244;49.088;11.886;2023-05-21T16:09:27;3.92;;;3.72;;
27424;SDS011;15244;49.088;11.886;2023-05-21T16:14:28;4.32;;;4.03;;
27424;SDS011;15244;49.088;11.886;2023-05-21T16:19:30;4.00;;;3.80;;
27424;SDS011;15244;49.088;11.886;2023-05-21T16:24:32;3.95;;;3.67;;
27424;SDS011;15244;49.088;11.886;2023-05-21T16:29:34;4.05;;;3.65;;
27424;SDS011;15244;49.088;11.886;2023-05-21T16:34:35;4.20;;;3.80;;
27424;SDS011;15244;49.088;11.886;2023-05-21T16:39:37;4.35;;;4.05;;
27424;SDS011;15244;49.088;11.886;2023-05-21T16:44:38;3.63;;;3.42;;
27424;SDS011;15244;49.088;11.886;2023-05-21T16:49:40;4.47;;;4.07;;
27424;SDS011;15244;49.088;11.886;2023-05-21T16:54:41;3.75;;;3.40;;
27424;SDS011;15244;49.088;11.886;2023-05-21T16:59:48;3.70;;;3.50;;
27424;SDS011;15244;49.088;11.886;2023-05-21T17:04:50;4.00;;;3.70;;
27424;SDS011;15244;49.088;11.886;2023-05-21T17:09:51;4.22;;;3.83;;
27424;SDS011;15244;49.088;11.886;2023-05-21T17:14:53;3.67;;;3.47;;
27424;SDS011;15244;49.088;11.886;2023-05-21T17:19:54;3.67;;;3.38;;
27424;SDS011;15244;49.088;11.886;2023-05-21T17:24:56;4.20;;;3.35;;
27424;SDS011;15244;49.088;11.886;2023-05-21T17:29:58;3.97;;;3.78;;
27424;SDS011;15244;49.088;11.886;2023-05-21T17:35:00;3.50;;;3.20;;
27424;SDS011;15244;49.088;11.886;2023-05-21T17:40:02;3.92;;;3.63;;
27424;SDS011;15244;49.088;11.886;2023-05-21T17:45:05;3.40;;;3.30;;
27424;SDS011;15244;49.088;11.886;2023-05-21T17:50:07;3.33;;;3.13;;
27424;SDS011;15244;49.088;11.886;2023-05-21T17:55:09;3.95;;;3.50;;
27424;SDS011;15244;49.088;11.886;2023-05-21T18:00:11;4.00;;;3.78;;
27424;SDS011;15244;49.088;11.886;2023-05-21T18:05:13;4.00;;;3.70;;
27424;SDS011;15244;49.088;11.886;2023-05-21T18:10:14;3.85;;;3.53;;
27424;SDS011;15244;49.088;11.886;2023-05-21T18:15:16;3.90;;;3.60;;
27424;SDS011;15244;49.088;11.886;2023-05-21T18:20:18;3.60;;;3.30;;
27424;SDS011;15244;49.088;11.886;2023-05-21T18:25:19;3.75;;;3.55;;
27424;SDS011;15244;49.088;11.886;2023-05-21T18:30:21;3.85;;;3.55;;
27424;SDS011;15244;49.088;11.886;2023-05-21T18:35:23;4.25;;;4.00;;
27424;SDS011;15244;49.088;11.886;2023-05-21T18:40:24;4.28;;;3.97;;
27424;SDS011;15244;49.088;11.886;2023-05-21T18:45:31;4.10;;;3.88;;
27424;SDS011;15244;49.088;11.886;2023-05-21T18:50:33;3.90;;;3.65;;
27424;SDS011;15244;49.088;11.886;2023-05-21T18:55:37;4.90;;;4.50;;
27424;SDS011;15244;49.088;11.886;2023-05-21T19:00:39;4.47;;;4.07;;
27424;SDS011;15244;49.088;11.886;2023-05-21T19:05:40;4.47;;;4.15;;
27424;SDS011;15244;49.088;11.886;2023-05-21T19:10:42;4.82;;;4.43;;
27424;SDS011;15244;49.088;11.886;2023-05-21T19:15:44;4.38;;;3.97;;
27424;SDS011;15244;49.088;11.886;2023-05-21T19:20:48;4.28;;;3.88;;
27424;SDS011;15244;49.088;11.886;2023-05-21T19:25:49;5.07;;;4.68;;
27424;SDS011;15244;49.088;11.886;2023-05-21T19:30:51;5.40;;;4.90;;
27424;SDS011;15244;49.088;11.886;2023-05-21T19:35:53;4.93;;;4.50;;
27424;SDS011;15244;49.088;11.886;2023-05-21T19:40:54;5.13;;;4.72;;
27424;SDS011;15244;49.088;11.886;2023-05-21T19:45:56;5.05;;;4.47;;
27424;SDS011;15244;49.088;11.886;2023-05-21T19:50:58;5.18;;;4.88;;
27424;SDS011;15244;49.088;11.886;2023-05-21T19:55:59;5.13;;;4.82;;
27424;SDS011;15244;49.088;11.886;2023-05-21T20:01:01;5.00;;;4.70;;
27424;SDS011;15244;49.088;11.886;2023-05-21T20:06:03;5.03;;;4.63;;
27424;SDS011;15244;49.088;11.886;2023-05-21T20:11:05;5.53;;;5.13;;
27424;SDS011;15244;49.088;11.886;2023-05-21T20:16:08;5.20;;;4.80;;
27424;SDS011;15244;49.088;11.886;2023-05-21T20:21:10;5.28;;;4.97;;
27424;SDS011;15244;49.088;11.886;2023-05-21T20:26:13;5.30;;;4.90;;
27424;SDS011;15244;49.088;11.886;2023-05-21T20:31:15;5.30;;;4.90;;
27424;SDS011;15244;49.088;11.886;2023-05-21T20:36:17;5.45;;;5.05;;
27424;SDS011;15244;49.088;11.886;2023-05-21T20:41:21;4.93;;;4.63;;
27424;SDS011;15244;49.088;11.886;2023-05-21T20:46:25;5.13;;;4.80;;
27424;SDS011;15244;49.088;11.886;2023-05-21T20:51:28;5.25;;;4.82;;
27424;SDS011;15244;49.088;11.886;2023-05-21T20:56:30;5.38;;;5.07;;
27424;SDS011;15244;49.088;11.886;2023-05-21T21:01:42;5.68;;;5.18;;
27424;SDS011;15244;49.088;11.886;2023-05-21T21:06:44;5.75;;;5.35;;
27424;SDS011;15244;49.088;11.886;2023-05-21T21:11:46;5.63;;;5.22;;
27424;SDS011;15244;49.088;11.886;2023-05-21T21:16:48;5.72;;;5.32;;
27424;SDS011;15244;49.088;11.886;2023-05-21T21:21:52;6.13;;;5.65;;
27424;SDS011;15244;49.088;11.886;2023-05-21T21:26:53;5.97;;;5.47;;
27424;SDS011;15244;49.088;11.886;2023-05-21T21:31:55;6.15;;;5.60;;
27424;SDS011;15244;49.088;11.886;2023-05-21T21:36:57;5.65;;;5.25;;
27424;SDS011;15244;49.088;11.886;2023-05-21T21:41:59;5.50;;;5.10;;
27424;SDS011;15244;49.088;11.886;2023-05-21T21:47:00;5.72;;;5.32;;
27424;SDS011;15244;49.088;11.886;2023-05-21T21:52:02;6.68;;;5.40;;
27424;SDS011;15244;49.088;11.886;2023-05-21T21:57:04;5.80;;;5.28;;
27424;SDS011;15244;49.088;11.886;2023-05-21T22:02:05;5.93;;;5.43;;
27424;SDS011;15244;49.088;11.886;2023-05-21T22:07:07;6.07;;;5.57;;
27424;SDS011;15244;49.088;11.886;2023-05-21T22:12:11;5.80;;;5.40;;
27424;SDS011;15244;49.088;11.886;2023-05-21T22:17:13;6.32;;;5.72;;
27424;SDS011;15244;49.088;11.886;2023-05-21T22:22:18;6.63;;;5.90;;
27424;SDS011;15244;49.088;11.886;2023-05-21T22:27:19;6.15;;;5.55;;
27424;SDS011;15244;49.088;11.886;2023-05-21T22:32:21;6.40;;;6.00;;
27424;SDS011;15244;49.088;11.886;2023-05-21T22:37:23;6.25;;;5.85;;
27424;SDS011;15244;49.088;11.886;2023-05-21T22:42:26;6.15;;;5.75;;
27424;SDS011;15244;49.088;11.886;2023-05-21T22:47:27;6.45;;;5.90;;
27424;SDS011;15244;49.088;11.886;2023-05-21T22:52:29;6.30;;;5.90;;
27424;SDS011;15244;49.088;11.886;2023-05-21T22:57:32;6.38;;;5.88;;
27424;SDS011;15244;49.088;11.886;2023-05-21T23:02:33;6.03;;;5.63;;
27424;SDS011;15244;49.088;11.886;2023-05-21T23:07:35;7.13;;;6.53;;
27424;SDS011;15244;49.088;11.886;2023-05-21T23:12:37;7.05;;;6.25;;
27424;SDS011;15244;49.088;11.886;2023-05-21T23:17:39;6.70;;;6.20;;
27424;SDS011;15244;49.088;11.886;2023-05-21T23:22:40;6.50;;;6.00;;
27424;SDS011;15244;49.088;11.886;2023-05-21T23:27:42;8.35;;;6.90;;
27424;SDS011;15244;49.088;11.886;2023-05-21T23:32:43;7.00;;;6.50;;
27424;SDS011;15244;49.088;11.886;2023-05-21T23:37:45;7.43;;;6.93;;
27424;SDS011;15244;49.088;11.886;2023-05-21T23:42:47;7.35;;;6.85;;
27424;SDS011;15244;49.088;11.886;2023-05-21T23:47:48;7.80;;;6.80;;
27424;SDS011;15244;49.088;11.886;2023-05-21T23:52:50;7.40;;;6.70;;
27424;SDS011;15244;49.088;11.886;2023-05-21T23:57:51;8.63;;;7.32;;
